KSPG/SPG METAR and TAF weather

Enter ICAO airport designator
Station Type Date Time Source
KSPG METAR 2019/04/25 15:53 UTC NOAA

KSPG 251553Z 14005KT 10SM CLR 36/18 A3001 RMK AO2 SLP162 T03610178


Station Type Date Time Source
KSPG Decoded METAR 2019/04/25 15:53 UTC NOAA

ST PETERSBURG WHITTED AIRPORT , FL, United States (KSPG) 27-46N 082-38W 2M
Apr 25, 2019 - 11:53 AM EDT / 2019.04.25 1553 UTC
Wind: from the SE (140 degrees) at 6 MPH (5 KT):0
Visibility: 10 mile(s):0
Sky conditions: clear
Temperature: 97.0 F (36.1 C)
Heat index: 99.3 F (37.4 C):1
Dew Point: 64.0 F (17.8 C)
Relative Humidity: 34%
Pressure (altimeter): 30.01 in. Hg (1016 hPa)
ob: KSPG 251553Z 14005KT 10SM CLR 36/18 A3001 RMK AO2 SLP162 T03610178
cycle: 16

Station Type Date Time Source
KSPG TAF UTC NOAA

Error!

Example: see airport list